LFST/SXB METAR and TAF weather

Enter ICAO airport designator
Station Type Date Time Source
LFST METAR 2020/05/29 18:30 UTC NOAA

LFST 291830Z AUTO 04013KT CAVOK 20/04 Q1021 NOSIG


Station Type Date Time Source
LFST Decoded METAR 2020/05/29 18:30 UTC NOAA

Strasbourg, France (LFST) 48-33N 007-38E 154M
May 29, 2020 - 02:30 PM EDT / 2020.05.29 1830 UTC
Wind: from the NE (040 degrees) at 15 MPH (13 KT):0
Visibility: greater than 7 mile(s):0
Temperature: 68 F (20 C)
Dew Point: 39 F (4 C)
Relative Humidity: 34%
Pressure (altimeter): 30.15 in. Hg (1021 hPa)
ob: LFST 291830Z AUTO 04013KT CAVOK 20/04 Q1021 NOSIG
cycle: 18

Station Type Date Time Source
LFST TAF 2020/05/29 18:21 UTC NOAA

TAF LFST 291703Z 2918/3018 04012KT CAVOK
BECMG 2919/2921 02006KT
BECMG 3008/3010 04010G20KT

Example: see airport list